sensor_id;sensor_type;location;lat;lon;timestamp;temperature;humidity
13123;DHT22;6627;50.920;12.050;2023-08-07T14:57:03;17.50;99.90
13123;DHT22;6627;50.920;12.050;2023-08-07T14:59:31;17.10;99.90
13123;DHT22;6627;50.920;12.050;2023-08-07T15:01:58;16.80;99.90
13123;DHT22;6627;50.920;12.050;2023-08-07T15:04:25;16.50;99.90
13123;DHT22;6627;50.920;12.050;2023-08-07T15:06:53;16.30;99.90
13123;DHT22;6627;50.920;12.050;2023-08-07T15:09:20;16.00;99.90
13123;DHT22;6627;50.920;12.050;2023-08-07T15:11:49;15.90;99.90
13123;DHT22;6627;50.920;12.050;2023-08-07T15:14:17;15.80;99.90
13123;DHT22;6627;50.920;12.050;2023-08-07T15:16:45;16.00;99.90
13123;DHT22;6627;50.920;12.050;2023-08-07T15:19:12;16.30;99.90
13123;DHT22;6627;50.920;12.050;2023-08-07T15:21:40;16.40;99.90
13123;DHT22;6627;50.920;12.050;2023-08-07T15:24:08;16.40;99.90
13123;DHT22;6627;50.920;12.050;2023-08-07T15:26:35;16.40;99.90
13123;DHT22;6627;50.920;12.050;2023-08-07T15:29:04;16.40;99.90
13123;DHT22;6627;50.920;12.050;2023-08-07T15:33:59;16.00;99.90
13123;DHT22;6627;50.920;12.050;2023-08-07T15:36:27;15.80;99.90
13123;DHT22;6627;50.920;12.050;2023-08-07T15:38:54;15.50;99.90
13123;DHT22;6627;50.920;12.050;2023-08-07T15:41:23;15.40;99.90
13123;DHT22;6627;50.920;12.050;2023-08-07T15:43:50;15.30;99.90
13123;DHT22;6627;50.920;12.050;2023-08-07T15:46:19;15.40;99.90
13123;DHT22;6627;50.920;12.050;2023-08-07T15:48:47;15.50;99.90
13123;DHT22;6627;50.920;12.050;2023-08-07T15:51:15;15.60;99.90
13123;DHT22;6627;50.920;12.050;2023-08-07T16:33:12;16.40;99.90
13123;DHT22;6627;50.920;12.050;2023-08-07T16:35:40;16.40;99.90
13123;DHT22;6627;50.920;12.050;2023-08-07T16:38:08;16.40;99.90
13123;DHT22;6627;50.920;12.050;2023-08-07T16:40:37;16.60;99.90
13123;DHT22;6627;50.920;12.050;2023-08-07T16:43:05;16.50;99.90
13123;DHT22;6627;50.920;12.050;2023-08-07T16:45:33;16.50;99.90
13123;DHT22;6627;50.920;12.050;2023-08-07T16:48:00;16.50;99.90
13123;DHT22;6627;50.920;12.050;2023-08-07T16:50:28;16.60;99.90
13123;DHT22;6627;50.920;12.050;2023-08-07T16:52:56;16.70;99.90
13123;DHT22;6627;50.920;12.050;2023-08-07T16:55:27;16.60;99.90
13123;DHT22;6627;50.920;12.050;2023-08-07T16:57:54;16.70;99.90
13123;DHT22;6627;50.920;12.050;2023-08-07T17:00:21;16.70;99.90
13123;DHT22;6627;50.920;12.050;2023-08-07T17:02:49;16.70;99.90
13123;DHT22;6627;50.920;12.050;2023-08-07T17:05:17;16.70;99.90
13123;DHT22;6627;50.920;12.050;2023-08-07T17:07:48;16.80;99.90
13123;DHT22;6627;50.920;12.050;2023-08-07T17:10:15;16.80;99.90
13123;DHT22;6627;50.920;12.050;2023-08-07T17:12:44;16.80;99.90
13123;DHT22;6627;50.920;12.050;2023-08-07T17:15:11;16.80;99.90
13123;DHT22;6627;50.920;12.050;2023-08-07T17:17:38;16.80;99.90
13123;DHT22;6627;50.920;12.050;2023-08-07T17:20:06;16.90;99.90
13123;DHT22;6627;50.920;12.050;2023-08-07T17:22:34;16.90;99.90
13123;DHT22;6627;50.920;12.050;2023-08-07T17:25:02;16.90;99.90
13123;DHT22;6627;50.920;12.050;2023-08-07T17:27:29;16.90;99.90
13123;DHT22;6627;50.920;12.050;2023-08-07T17:29:58;17.00;99.90
13123;DHT22;6627;50.920;12.050;2023-08-07T17:32:25;16.90;99.90
13123;DHT22;6627;50.920;12.050;2023-08-07T17:34:53;16.90;99.90
13123;DHT22;6627;50.920;12.050;2023-08-07T17:37:22;16.90;99.90
13123;DHT22;6627;50.920;12.050;2023-08-07T17:39:49;16.80;99.90
13123;DHT22;6627;50.920;12.050;2023-08-07T17:42:17;16.70;99.90
13123;DHT22;6627;50.920;12.050;2023-08-07T17:44:45;16.70;99.90
13123;DHT22;6627;50.920;12.050;2023-08-07T17:47:13;16.70;99.90
13123;DHT22;6627;50.920;12.050;2023-08-07T17:49:41;16.60;99.90
13123;DHT22;6627;50.920;12.050;2023-08-07T17:52:09;16.60;99.90
13123;DHT22;6627;50.920;12.050;2023-08-07T17:54:37;16.60;99.90
13123;DHT22;6627;50.920;12.050;2023-08-07T17:57:05;16.70;99.90
13123;DHT22;6627;50.920;12.050;2023-08-07T17:59:32;16.60;99.90
13123;DHT22;6627;50.920;12.050;2023-08-07T18:01:59;16.50;99.90
13123;DHT22;6627;50.920;12.050;2023-08-07T18:04:28;16.60;99.90
13123;DHT22;6627;50.920;12.050;2023-08-07T18:06:55;16.60;99.90
13123;DHT22;6627;50.920;12.050;2023-08-07T18:09:23;16.50;99.90
13123;DHT22;6627;50.920;12.050;2023-08-07T18:11:50;16.50;99.90
13123;DHT22;6627;50.920;12.050;2023-08-07T18:14:17;16.40;99.90
13123;DHT22;6627;50.920;12.050;2023-08-07T18:16:45;16.40;99.90
13123;DHT22;6627;50.920;12.050;2023-08-07T18:19:12;16.30;99.90
13123;DHT22;6627;50.920;12.050;2023-08-07T18:21:41;16.40;99.90
13123;DHT22;6627;50.920;12.050;2023-08-07T18:24:08;16.20;99.90
13123;DHT22;6627;50.920;12.050;2023-08-07T18:26:35;16.30;99.90
13123;DHT22;6627;50.920;12.050;2023-08-07T18:29:03;16.20;99.90
13123;DHT22;6627;50.920;12.050;2023-08-07T18:31:30;16.10;99.90
13123;DHT22;6627;50.920;12.050;2023-08-07T18:33:58;16.10;99.90
13123;DHT22;6627;50.920;12.050;2023-08-07T18:36:26;16.10;99.90
13123;DHT22;6627;50.920;12.050;2023-08-07T18:38:55;16.00;99.90
13123;DHT22;6627;50.920;12.050;2023-08-07T18:41:22;16.00;99.90
13123;DHT22;6627;50.920;12.050;2023-08-07T18:43:50;15.90;99.90
13123;DHT22;6627;50.920;12.050;2023-08-07T18:46:17;15.80;99.90
13123;DHT22;6627;50.920;12.050;2023-08-07T18:48:45;15.90;99.90
13123;DHT22;6627;50.920;12.050;2023-08-07T18:51:12;15.70;99.90
13123;DHT22;6627;50.920;12.050;2023-08-07T18:53:40;15.70;99.90
13123;DHT22;6627;50.920;12.050;2023-08-07T18:56:09;15.60;99.90
13123;DHT22;6627;50.920;12.050;2023-08-07T18:58:36;15.50;99.90
13123;DHT22;6627;50.920;12.050;2023-08-07T19:01:04;15.50;99.90
13123;DHT22;6627;50.920;12.050;2023-08-07T19:03:31;15.40;99.90
13123;DHT22;6627;50.920;12.050;2023-08-07T19:05:58;15.40;99.90
13123;DHT22;6627;50.920;12.050;2023-08-07T19:08:30;15.30;99.90
13123;DHT22;6627;50.920;12.050;2023-08-07T19:10:57;15.30;99.90
13123;DHT22;6627;50.920;12.050;2023-08-07T19:13:26;15.30;99.90
13123;DHT22;6627;50.920;12.050;2023-08-07T19:15:55;15.30;99.90
13123;DHT22;6627;50.920;12.050;2023-08-07T19:18:23;15.20;99.90
13123;DHT22;6627;50.920;12.050;2023-08-07T19:20:51;15.10;99.90
13123;DHT22;6627;50.920;12.050;2023-08-07T19:23:19;15.10;99.90
13123;DHT22;6627;50.920;12.050;2023-08-07T19:25:46;15.10;99.90
13123;DHT22;6627;50.920;12.050;2023-08-07T19:28:13;14.90;99.90
13123;DHT22;6627;50.920;12.050;2023-08-07T19:30:42;14.80;99.90
13123;DHT22;6627;50.920;12.050;2023-08-07T19:33:09;14.80;99.90
13123;DHT22;6627;50.920;12.050;2023-08-07T19:35:37;14.90;99.90
13123;DHT22;6627;50.920;12.050;2023-08-07T19:38:04;14.90;99.90
13123;DHT22;6627;50.920;12.050;2023-08-07T19:40:31;14.90;99.90
13123;DHT22;6627;50.920;12.050;2023-08-07T19:42:59;14.90;99.90
13123;DHT22;6627;50.920;12.050;2023-08-07T19:45:27;14.80;99.90
13123;DHT22;6627;50.920;12.050;2023-08-07T19:47:56;14.90;99.90
13123;DHT22;6627;50.920;12.050;2023-08-07T19:50:25;14.90;99.90
13123;DHT22;6627;50.920;12.050;2023-08-07T19:52:52;14.90;99.90
13123;DHT22;6627;50.920;12.050;2023-08-07T19:55:20;14.90;99.90
13123;DHT22;6627;50.920;12.050;2023-08-07T19:57:48;14.90;99.90
13123;DHT22;6627;50.920;12.050;2023-08-07T20:00:15;14.90;99.90
13123;DHT22;6627;50.920;12.050;2023-08-07T20:02:44;14.90;99.90
13123;DHT22;6627;50.920;12.050;2023-08-07T20:05:13;14.80;99.90
13123;DHT22;6627;50.920;12.050;2023-08-07T20:07:40;14.80;99.90
13123;DHT22;6627;50.920;12.050;2023-08-07T20:10:08;14.90;99.90
13123;DHT22;6627;50.920;12.050;2023-08-07T20:12:37;14.90;99.90
13123;DHT22;6627;50.920;12.050;2023-08-07T20:15:05;14.90;99.90
13123;DHT22;6627;50.920;12.050;2023-08-07T20:17:33;14.80;99.90
13123;DHT22;6627;50.920;12.050;2023-08-07T20:20:00;14.80;99.90
13123;DHT22;6627;50.920;12.050;2023-08-07T20:22:29;14.70;99.90
13123;DHT22;6627;50.920;12.050;2023-08-07T20:24:56;14.60;99.90
13123;DHT22;6627;50.920;12.050;2023-08-07T20:27:24;14.60;99.90
13123;DHT22;6627;50.920;12.050;2023-08-07T20:29:51;14.60;99.90
13123;DHT22;6627;50.920;12.050;2023-08-07T20:32:18;14.60;99.90
13123;DHT22;6627;50.920;12.050;2023-08-07T20:34:45;14.50;99.90
13123;DHT22;6627;50.920;12.050;2023-08-07T20:37:13;14.50;99.90
13123;DHT22;6627;50.920;12.050;2023-08-07T20:39:41;14.50;99.90
13123;DHT22;6627;50.920;12.050;2023-08-07T20:42:09;14.40;99.90
13123;DHT22;6627;50.920;12.050;2023-08-07T20:44:36;14.40;99.90
13123;DHT22;6627;50.920;12.050;2023-08-07T20:47:03;14.40;99.90
13123;DHT22;6627;50.920;12.050;2023-08-07T20:49:31;14.40;99.90
13123;DHT22;6627;50.920;12.050;2023-08-07T20:51:59;14.30;99.90
13123;DHT22;6627;50.920;12.050;2023-08-07T20:54:26;14.30;99.90
13123;DHT22;6627;50.920;12.050;2023-08-07T20:56:55;14.40;99.90
13123;DHT22;6627;50.920;12.050;2023-08-07T20:59:23;14.40;99.90
13123;DHT22;6627;50.920;12.050;2023-08-07T21:01:50;14.30;99.90
13123;DHT22;6627;50.920;12.050;2023-08-07T21:04:17;14.30;99.90
13123;DHT22;6627;50.920;12.050;2023-08-07T21:06:45;14.30;99.90
13123;DHT22;6627;50.920;12.050;2023-08-07T21:09:13;14.20;99.90
13123;DHT22;6627;50.920;12.050;2023-08-07T21:11:40;14.20;99.90
13123;DHT22;6627;50.920;12.050;2023-08-07T21:14:09;14.10;99.90
13123;DHT22;6627;50.920;12.050;2023-08-07T21:16:36;14.10;99.90
13123;DHT22;6627;50.920;12.050;2023-08-07T21:19:03;14.10;99.90
13123;DHT22;6627;50.920;12.050;2023-08-07T21:21:30;14.10;99.90
13123;DHT22;6627;50.920;12.050;2023-08-07T21:23:58;14.00;99.90
13123;DHT22;6627;50.920;12.050;2023-08-07T21:26:25;14.00;99.90
13123;DHT22;6627;50.920;12.050;2023-08-07T21:28:52;14.00;99.90
13123;DHT22;6627;50.920;12.050;2023-08-07T21:31:21;13.90;99.90
13123;DHT22;6627;50.920;12.050;2023-08-07T21:33:48;13.90;99.90
13123;DHT22;6627;50.920;12.050;2023-08-07T21:36:16;13.80;99.90
13123;DHT22;6627;50.920;12.050;2023-08-07T21:38:43;13.80;99.90
13123;DHT22;6627;50.920;12.050;2023-08-07T21:41:10;13.80;99.90
13123;DHT22;6627;50.920;12.050;2023-08-07T21:43:37;13.80;99.90
13123;DHT22;6627;50.920;12.050;2023-08-07T21:46:05;13.80;99.90
13123;DHT22;6627;50.920;12.050;2023-08-07T21:48:34;13.80;99.90
13123;DHT22;6627;50.920;12.050;2023-08-07T21:51:01;13.80;99.90
13123;DHT22;6627;50.920;12.050;2023-08-07T21:53:29;13.70;99.90
13123;DHT22;6627;50.920;12.050;2023-08-07T21:55:56;13.70;99.90
13123;DHT22;6627;50.920;12.050;2023-08-07T21:58:23;13.70;99.90
13123;DHT22;6627;50.920;12.050;2023-08-07T22:00:50;13.70;99.90
13123;DHT22;6627;50.920;12.050;2023-08-07T22:03:18;13.70;99.90
13123;DHT22;6627;50.920;12.050;2023-08-07T22:05:47;13.70;99.90
13123;DHT22;6627;50.920;12.050;2023-08-07T22:08:15;13.60;99.90
13123;DHT22;6627;50.920;12.050;2023-08-07T22:10:43;13.60;99.90
13123;DHT22;6627;50.920;12.050;2023-08-07T22:13:11;13.70;99.90
13123;DHT22;6627;50.920;12.050;2023-08-07T22:15:40;13.60;99.90
13123;DHT22;6627;50.920;12.050;2023-08-07T22:18:07;13.60;99.90
13123;DHT22;6627;50.920;12.050;2023-08-07T22:20:35;13.50;99.90
13123;DHT22;6627;50.920;12.050;2023-08-07T22:23:04;13.50;99.90
13123;DHT22;6627;50.920;12.050;2023-08-07T22:25:32;13.50;99.90
13123;DHT22;6627;50.920;12.050;2023-08-07T22:27:59;13.50;99.90
13123;DHT22;6627;50.920;12.050;2023-08-07T22:30:27;13.50;99.90
13123;DHT22;6627;50.920;12.050;2023-08-07T22:32:55;13.50;99.90
13123;DHT22;6627;50.920;12.050;2023-08-07T22:35:24;13.50;99.90
13123;DHT22;6627;50.920;12.050;2023-08-07T22:37:51;13.40;99.90
13123;DHT22;6627;50.920;12.050;2023-08-07T22:40:21;13.40;99.90
13123;DHT22;6627;50.920;12.050;2023-08-07T22:42:48;13.50;99.90
13123;DHT22;6627;50.920;12.050;2023-08-07T22:45:16;13.40;99.90
13123;DHT22;6627;50.920;12.050;2023-08-07T22:47:43;13.40;99.90
13123;DHT22;6627;50.920;12.050;2023-08-07T22:50:11;13.40;99.90
13123;DHT22;6627;50.920;12.050;2023-08-07T22:52:38;13.40;99.90
13123;DHT22;6627;50.920;12.050;2023-08-07T22:55:06;13.30;99.90
13123;DHT22;6627;50.920;12.050;2023-08-07T22:57:35;13.30;99.90
13123;DHT22;6627;50.920;12.050;2023-08-07T23:00:03;13.30;99.90
13123;DHT22;6627;50.920;12.050;2023-08-07T23:02:32;13.30;99.90
13123;DHT22;6627;50.920;12.050;2023-08-07T23:05:00;13.30;99.90
13123;DHT22;6627;50.920;12.050;2023-08-07T23:07:27;13.20;99.90
13123;DHT22;6627;50.920;12.050;2023-08-07T23:09:54;13.10;99.90
13123;DHT22;6627;50.920;12.050;2023-08-07T23:12:21;13.10;99.90
13123;DHT22;6627;50.920;12.050;2023-08-07T23:14:51;13.10;99.90
13123;DHT22;6627;50.920;12.050;2023-08-07T23:17:19;13.10;99.90
13123;DHT22;6627;50.920;12.050;2023-08-07T23:19:46;13.00;99.90
13123;DHT22;6627;50.920;12.050;2023-08-07T23:22:13;13.10;99.90
13123;DHT22;6627;50.920;12.050;2023-08-07T23:24:41;13.10;99.90
13123;DHT22;6627;50.920;12.050;2023-08-07T23:27:08;13.00;99.90
13123;DHT22;6627;50.920;12.050;2023-08-07T23:29:36;13.10;99.90
13123;DHT22;6627;50.920;12.050;2023-08-07T23:32:06;13.00;99.90
13123;DHT22;6627;50.920;12.050;2023-08-07T23:34:34;13.10;99.90
13123;DHT22;6627;50.920;12.050;2023-08-07T23:37:02;13.00;99.90
13123;DHT22;6627;50.920;12.050;2023-08-07T23:39:29;13.00;99.90
13123;DHT22;6627;50.920;12.050;2023-08-07T23:41:56;13.00;99.90
13123;DHT22;6627;50.920;12.050;2023-08-07T23:44:25;13.00;99.90
13123;DHT22;6627;50.920;12.050;2023-08-07T23:46:53;13.00;99.90
13123;DHT22;6627;50.920;12.050;2023-08-07T23:49:21;13.00;99.90
13123;DHT22;6627;50.920;12.050;2023-08-07T23:51:49;13.00;99.90
13123;DHT22;6627;50.920;12.050;2023-08-07T23:54:16;12.90;99.90
13123;DHT22;6627;50.920;12.050;2023-08-07T23:56:43;12.90;99.90
13123;DHT22;6627;50.920;12.050;2023-08-07T23:59:11;12.90;99.90
